Time;durP1;ratioP1;P1;durP2;ratioP2;P2;SDS_P1;SDS_P2;PMS_P1;PMS_P2;Temp;Humidity;BMP_temperature;BMP_pressure;BME280_temperature;BME280_humidity;BME280_pressure;Samples;Min_cycle;Max_cycle;Signal;HPM_P1;HPM_P2
2024/04/03 00:00:48;;;;;;;11.20;2.95;;;11.60;99.90;;;;;;5076459;28;20029;-76
2024/04/03 00:03:14;;;;;;;14.65;2.92;;;11.60;99.90;;;;;;5075702;28;20040;-76
2024/04/03 00:05:40;;;;;;;9.90;3.13;;;11.60;99.90;;;;;;5057447;28;20389;-78
2024/04/03 00:08:06;;;;;;;15.65;3.00;;;11.60;99.90;;;;;;5074557;28;20028;-76
2024/04/03 00:10:31;;;;;;;16.08;3.15;;;11.60;99.90;;;;;;5072900;28;20036;-78
2024/04/03 00:12:58;;;;;;;12.25;2.13;;;11.50;99.90;;;;;;5072896;28;20104;-78
2024/04/03 00:15:23;;;;;;;13.63;3.05;;;11.40;99.90;;;;;;5057105;28;20861;-76
2024/04/03 00:17:53;;;;;;;14.02;2.60;;;11.50;99.90;;;;;;5074298;28;20120;-77
2024/04/03 00:20:23;;;;;;;14.50;2.63;;;11.60;99.90;;;;;;5056097;28;20402;-75
2024/04/03 00:22:49;;;;;;;12.65;2.55;;;11.60;99.90;;;;;;5056978;28;20131;-76
2024/04/03 00:25:15;;;;;;;14.50;2.65;;;11.40;99.90;;;;;;5073596;28;20033;-76
2024/04/03 00:27:41;;;;;;;14.43;2.67;;;11.30;99.90;;;;;;5074094;28;20020;-75
2024/04/03 00:30:07;;;;;;;13.75;2.33;;;11.40;99.90;;;;;;5056901;28;20496;-75
2024/04/03 00:32:34;;;;;;;10.82;2.47;;;11.30;99.90;;;;;;5058093;28;20031;-75
2024/04/03 00:35:01;;;;;;;14.32;3.10;;;11.40;99.90;;;;;;5081265;28;20037;-76
2024/04/03 00:37:28;;;;;;;13.02;3.08;;;11.50;99.90;;;;;;5082428;28;20123;-75
2024/04/03 00:39:53;;;;;;;12.75;2.35;;;11.50;99.90;;;;;;5086420;28;20861;-76
2024/04/03 00:42:20;;;;;;;12.50;2.80;;;11.50;99.90;;;;;;5080021;28;20020;-76
2024/04/03 00:44:50;;;;;;;14.25;2.53;;;11.60;99.90;;;;;;5073393;28;20074;-76
2024/04/03 00:47:16;;;;;;;12.68;3.35;;;11.70;99.90;;;;;;5072737;28;20025;-78
2024/04/03 00:49:47;;;;;;;17.05;2.65;;;11.80;99.90;;;;;;5073434;28;20507;-76
2024/04/03 00:52:14;;;;;;;10.00;2.72;;;11.70;99.90;;;;;;5055880;28;20055;-77
2024/04/03 00:54:42;;;;;;;11.82;2.47;;;11.70;99.90;;;;;;5066357;28;20059;-76
2024/04/03 00:57:08;;;;;;;13.73;2.75;;;11.70;99.90;;;;;;5069902;28;20021;-76
2024/04/03 00:59:34;;;;;;;18.40;3.00;;;11.60;99.90;;;;;;5071958;28;20039;-75
2024/04/03 01:02:00;;;;;;;13.70;2.50;;;11.60;99.90;;;;;;5072521;28;20381;-77
2024/04/03 01:04:26;;;;;;;12.13;2.30;;;11.70;99.90;;;;;;5055772;28;20032;-76
2024/04/03 01:06:52;;;;;;;13.75;2.60;;;11.80;99.90;;;;;;5055748;28;20489;-74
2024/04/03 01:09:18;;;;;;;14.23;3.40;;;12.00;99.90;;;;;;5071639;28;20099;-75
2024/04/03 01:11:46;;;;;;;14.07;3.20;;;12.00;99.90;;;;;;5073014;28;20036;-76
2024/04/03 01:14:12;;;;;;;17.17;3.13;;;11.90;99.90;;;;;;5071978;28;20066;-75
2024/04/03 01:16:40;;;;;;;7.38;2.35;;;11.90;99.90;;;;;;5072761;28;20021;-75
2024/04/03 01:19:06;;;;;;;9.63;2.53;;;12.00;99.90;;;;;;5069922;28;20127;-75
2024/04/03 01:21:31;;;;;;;12.77;3.88;;;12.00;99.90;;;;;;5065807;28;20130;-73
2024/04/03 01:23:57;;;;;;;11.60;2.38;;;11.90;99.90;;;;;;5047639;28;20485;-75
2024/04/03 01:26:25;;;;;;;11.23;2.30;;;12.00;99.90;;;;;;5013391;28;20041;-76
2024/04/03 01:28:50;;;;;;;12.68;2.25;;;12.10;99.90;;;;;;5039277;28;20060;-74
2024/04/03 01:31:16;;;;;;;12.45;2.50;;;12.00;99.90;;;;;;5030827;28;20448;-76
2024/04/03 01:33:42;;;;;;;11.52;2.88;;;12.00;99.90;;;;;;5036174;28;20562;-75
2024/04/03 01:36:07;;;;;;;12.30;2.80;;;12.00;99.90;;;;;;5034910;28;20021;-76
2024/04/03 01:38:33;;;;;;;8.45;2.38;;;11.90;99.90;;;;;;5027388;28;20128;-75
2024/04/03 01:40:59;;;;;;;12.23;3.55;;;12.00;99.90;;;;;;5056263;28;20052;-75
2024/04/03 01:43:24;;;;;;;14.57;3.03;;;12.00;99.90;;;;;;5054482;28;20094;-73
2024/04/03 01:46:00;;;;;;;8.57;2.20;;;12.00;99.90;;;;;;5038073;28;20062;-76
2024/04/03 01:48:26;;;;;;;12.98;2.63;;;12.10;99.90;;;;;;5054673;28;20024;-76
2024/04/03 01:50:52;;;;;;;18.17;3.58;;;12.10;99.90;;;;;;5055343;28;20024;-74
2024/04/03 01:53:18;;;;;;;15.00;3.45;;;12.20;99.90;;;;;;5055053;28;20502;-74
2024/04/03 01:55:54;;;;;;;14.32;3.35;;;12.10;99.90;;;;;;5054827;28;20511;-75
2024/04/03 01:58:21;;;;;;;12.05;2.70;;;12.10;99.90;;;;;;5072398;28;20078;-75
2024/04/03 02:00:47;;;;;;;16.05;3.33;;;12.00;99.90;;;;;;5054944;28;20944;-74
2024/04/03 02:03:13;;;;;;;10.27;3.08;;;12.10;99.90;;;;;;5054790;28;20031;-74
2024/04/03 02:05:41;;;;;;;16.73;2.95;;;12.00;99.90;;;;;;5072175;28;20032;-77
2024/04/03 02:08:07;;;;;;;12.75;2.67;;;12.00;99.90;;;;;;5073429;28;20031;-75
2024/04/03 02:10:32;;;;;;;13.10;3.88;;;12.10;99.90;;;;;;5047379;28;20056;-75
2024/04/03 02:12:58;;;;;;;12.88;2.92;;;12.20;99.90;;;;;;5074531;28;20039;-75
2024/04/03 02:15:24;;;;;;;13.70;2.72;;;12.10;99.90;;;;;;5075564;28;20028;-76
2024/04/03 02:17:49;;;;;;;13.32;3.58;;;12.10;99.90;;;;;;5024658;28;20029;-76
2024/04/03 02:20:15;;;;;;;13.70;3.03;;;12.10;99.90;;;;;;5040385;28;20066;-76
2024/04/03 02:22:41;;;;;;;14.95;2.40;;;12.00;99.90;;;;;;5056600;28;20057;-75
2024/04/03 02:25:07;;;;;;;14.73;3.08;;;12.00;99.90;;;;;;5065229;28;20036;-77
2024/04/03 02:27:32;;;;;;;15.18;3.75;;;12.00;99.90;;;;;;5074275;28;20037;-75
2024/04/03 02:29:58;;;;;;;16.55;2.92;;;12.00;99.90;;;;;;5038883;28;20033;-76
2024/04/03 02:32:23;;;;;;;15.05;3.10;;;11.90;99.90;;;;;;5052697;28;20032;-76
2024/04/03 02:34:54;;;;;;;11.90;2.92;;;11.80;99.90;;;;;;5072277;28;20072;-76
2024/04/03 02:37:19;;;;;;;10.77;2.95;;;11.80;99.90;;;;;;5069801;28;20127;-75
2024/04/03 02:39:45;;;;;;;16.65;3.50;;;11.60;99.90;;;;;;5071309;28;20037;-74
2024/04/03 02:42:11;;;;;;;14.80;2.67;;;11.60;99.90;;;;;;5070122;28;20029;-76
2024/04/03 02:44:36;;;;;;;14.55;2.90;;;11.60;99.90;;;;;;5081496;28;20081;-76
2024/04/03 02:47:02;;;;;;;11.48;2.05;;;11.70;99.90;;;;;;5096526;28;20028;-77
2024/04/03 02:49:27;;;;;;;16.00;3.45;;;11.80;99.90;;;;;;5079812;28;20040;-76
2024/04/03 02:51:53;;;;;;;19.27;3.05;;;11.90;99.90;;;;;;5053201;28;20625;-75
2024/04/03 02:54:19;;;;;;;22.70;3.00;;;11.70;99.90;;;;;;5055687;28;20431;-75
2024/04/03 02:56:44;;;;;;;16.17;2.97;;;11.70;99.90;;;;;;5087271;28;20029;-77
2024/04/03 02:59:10;;;;;;;12.32;3.22;;;11.50;99.90;;;;;;5036373;28;20455;-75
2024/04/03 03:01:36;;;;;;;11.85;2.60;;;11.50;99.90;;;;;;5071726;28;20418;-75
2024/04/03 03:04:02;;;;;;;13.07;3.05;;;11.50;99.90;;;;;;5053535;28;20028;-75
2024/04/03 03:06:28;;;;;;;11.02;2.20;;;11.50;99.90;;;;;;5032555;28;20044;-74
2024/04/03 03:08:53;;;;;;;11.55;2.25;;;11.50;99.90;;;;;;5068352;28;20076;-75
2024/04/03 03:11:19;;;;;;;14.57;2.78;;;11.40;99.90;;;;;;5053455;28;20028;-77
2024/04/03 03:13:45;;;;;;;10.80;2.45;;;11.40;99.90;;;;;;5071517;28;20037;-75
2024/04/03 03:16:10;;;;;;;12.35;3.13;;;11.50;99.90;;;;;;5036357;28;20051;-75
2024/04/03 03:18:36;;;;;;;7.75;1.95;;;11.50;99.90;;;;;;5066871;28;20044;-75
2024/04/03 03:21:02;;;;;;;8.70;2.50;;;11.50;99.90;;;;;;5049155;28;20405;-75
2024/04/03 03:23:27;;;;;;;11.48;2.10;;;11.50;99.90;;;;;;5070104;28;20084;-77
2024/04/03 03:25:53;;;;;;;10.60;2.22;;;11.50;99.90;;;;;;5068014;28;20024;-76
2024/04/03 03:28:20;;;;;;;14.32;2.13;;;11.40;99.90;;;;;;5070689;28;20033;-76
2024/04/03 03:30:50;;;;;;;9.43;2.15;;;11.30;99.90;;;;;;5054013;28;20028;-75
2024/04/03 03:33:17;;;;;;;14.20;2.88;;;11.50;99.90;;;;;;5072236;28;20028;-76
2024/04/03 03:35:52;;;;;;;13.93;2.83;;;11.40;99.90;;;;;;5073986;28;20025;-76
2024/04/03 03:38:18;;;;;;;16.73;2.47;;;11.40;99.90;;;;;;5075059;28;20024;-76
2024/04/03 03:40:43;;;;;;;11.80;2.78;;;11.40;99.90;;;;;;5058575;28;20062;-75
2024/04/03 03:43:09;;;;;;;10.80;2.00;;;11.20;99.90;;;;;;5074321;28;20383;-75
2024/04/03 03:45:44;;;;;;;10.73;2.47;;;11.10;99.90;;;;;;5058166;28;20025;-77
2024/04/03 03:48:10;;;;;;;11.07;2.03;;;11.00;99.90;;;;;;5074523;28;20017;-75
2024/04/03 03:53:20;;;;;;;9.60;1.92;;;11.20;99.90;;;;;;5075140;28;20048;-77
2024/04/03 03:55:46;;;;;;;7.82;1.98;;;11.20;99.90;;;;;;5067685;28;20024;-74
2024/04/03 03:58:12;;;;;;;9.05;1.48;;;11.20;99.90;;;;;;5072908;28;20024;-74
2024/04/03 04:00:37;;;;;;;12.10;2.38;;;11.20;99.90;;;;;;5090746;28;20036;-75
2024/04/03 04:03:03;;;;;;;12.57;1.60;;;11.10;99.90;;;;;;5057676;28;20028;-75
2024/04/03 04:05:29;;;;;;;10.02;1.88;;;11.10;99.90;;;;;;5057298;28;20029;-75
2024/04/03 04:07:54;;;;;;;7.13;2.08;;;11.20;99.90;;;;;;5073078;28;20031;-74
2024/04/03 04:10:20;;;;;;;6.47;1.70;;;11.20;99.90;;;;;;5076426;28;20454;-76
2024/04/03 04:12:46;;;;;;;12.05;1.95;;;11.20;99.90;;;;;;5076769;28;20024;-75
2024/04/03 04:15:11;;;;;;;5.57;1.52;;;11.30;99.90;;;;;;5071602;28;20491;-76
2024/04/03 04:17:37;;;;;;;10.43;1.77;;;11.30;99.90;;;;;;5089080;28;20031;-75
2024/04/03 04:20:07;;;;;;;6.38;1.75;;;11.20;99.90;;;;;;5086784;28;20052;-75
2024/04/03 04:22:34;;;;;;;4.30;1.48;;;11.20;99.90;;;;;;5089693;28;20044;-75
2024/04/03 04:25:01;;;;;;;9.00;2.03;;;11.30;99.90;;;;;;5060138;28;20039;-73
2024/04/03 04:27:26;;;;;;;8.85;1.63;;;11.30;99.90;;;;;;5076646;28;20058;-73
2024/04/03 04:29:52;;;;;;;5.85;1.20;;;11.30;99.90;;;;;;5078471;28;20028;-75
2024/04/03 04:32:18;;;;;;;5.25;1.52;;;11.30;99.90;;;;;;5093075;28;20388;-76
2024/04/03 04:34:43;;;;;;;5.63;1.50;;;11.30;99.90;;;;;;5080061;28;20040;-75
2024/04/03 04:37:09;;;;;;;8.15;1.50;;;11.30;99.90;;;;;;5094779;28;20362;-74
2024/04/03 04:39:36;;;;;;;7.47;1.90;;;11.10;99.90;;;;;;5060800;28;20036;-75
2024/04/03 04:42:02;;;;;;;6.20;1.33;;;11.20;99.90;;;;;;5061098;28;20024;-75
2024/04/03 04:44:28;;;;;;;7.32;1.38;;;11.30;99.90;;;;;;5078545;28;20541;-74
2024/04/03 04:46:59;;;;;;;6.55;1.60;;;11.30;99.90;;;;;;5095389;28;20033;-75
2024/04/03 04:49:24;;;;;;;7.43;2.00;;;11.20;99.90;;;;;;5076239;28;20088;-73
2024/04/03 04:51:50;;;;;;;4.28;1.50;;;11.30;99.90;;;;;;5043974;28;20123;-74
2024/04/03 04:54:17;;;;;;;7.38;1.45;;;11.50;99.90;;;;;;5078719;28;20036;-76
2024/04/03 04:56:43;;;;;;;6.38;1.50;;;11.40;99.90;;;;;;5078143;28;20089;-77
2024/04/03 04:59:09;;;;;;;11.10;1.55;;;11.30;99.90;;;;;;5075296;28;20039;-76
2024/04/03 05:01:38;;;;;;;4.30;1.40;;;11.30;99.90;;;;;;5076568;28;20032;-76
2024/04/03 05:04:03;;;;;;;7.07;1.90;;;11.20;99.90;;;;;;5095002;28;20028;-76
2024/04/03 05:06:30;;;;;;;11.45;1.70;;;11.20;99.90;;;;;;5093971;28;20511;-74
2024/04/03 05:08:59;;;;;;;14.75;1.83;;;11.20;99.90;;;;;;5094315;28;20028;-75
2024/04/03 05:11:25;;;;;;;6.15;1.98;;;11.10;99.90;;;;;;5040368;28;20509;-74
2024/04/03 05:13:50;;;;;;;4.03;1.58;;;11.00;99.90;;;;;;5079471;28;20039;-75
2024/04/03 05:16:23;;;;;;;7.03;1.60;;;11.00;99.90;;;;;;5099052;28;20115;-75
2024/04/03 05:18:50;;;;;;;6.55;1.40;;;11.00;99.90;;;;;;5080272;28;20095;-78
2024/04/03 05:21:17;;;;;;;9.18;1.80;;;11.10;99.90;;;;;;5095591;28;20035;-75
2024/04/03 05:23:43;;;;;;;3.83;1.13;;;11.00;99.90;;;;;;5056187;28;20234;-75
2024/04/03 05:26:11;;;;;;;10.93;1.90;;;11.00;99.90;;;;;;5056890;28;20024;-76
2024/04/03 05:28:38;;;;;;;4.25;1.48;;;11.00;99.90;;;;;;5072213;28;20033;-76
2024/04/03 05:31:05;;;;;;;3.45;1.55;;;11.10;99.90;;;;;;5053119;28;20041;-75
2024/04/03 05:33:32;;;;;;;7.40;1.23;;;11.20;99.90;;;;;;5068304;28;20515;-76
2024/04/03 05:35:59;;;;;;;4.78;1.60;;;11.30;99.90;;;;;;5051852;28;20052;-75
2024/04/03 05:38:25;;;;;;;6.50;1.67;;;11.20;99.90;;;;;;5040610;28;20032;-73
2024/04/03 05:40:55;;;;;;;5.47;2.00;;;11.20;99.90;;;;;;5056155;28;20027;-77
2024/04/03 05:43:21;;;;;;;8.35;2.38;;;11.10;99.90;;;;;;5061683;28;20051;-75
2024/04/03 05:45:48;;;;;;;7.43;1.80;;;11.20;99.90;;;;;;5055321;28;20035;-75
2024/04/03 05:48:14;;;;;;;6.93;1.80;;;11.30;99.90;;;;;;5053048;28;20066;-77
2024/04/03 05:50:41;;;;;;;6.07;1.40;;;11.20;99.90;;;;;;5083019;28;20020;-74
2024/04/03 05:53:07;;;;;;;6.88;2.03;;;11.20;99.90;;;;;;5071244;28;20035;-78
2024/04/03 05:55:32;;;;;;;8.80;2.33;;;11.30;99.90;;;;;;5088966;28;20108;-74
2024/04/03 05:57:59;;;;;;;7.57;2.10;;;11.20;99.90;;;;;;5056834;28;20063;-76
2024/04/03 06:00:25;;;;;;;5.88;1.63;;;11.20;99.90;;;;;;5078528;28;20036;-77
2024/04/03 06:02:52;;;;;;;12.30;2.03;;;11.30;99.90;;;;;;5047189;28;20039;-76
2024/04/03 06:05:18;;;;;;;6.07;1.75;;;11.30;99.90;;;;;;5065641;28;20035;-76
2024/04/03 06:07:45;;;;;;;10.93;2.10;;;11.30;99.90;;;;;;5041125;28;20484;-77
2024/04/03 06:10:12;;;;;;;6.47;1.80;;;11.20;99.90;;;;;;5061638;28;20487;-77
2024/04/03 06:12:42;;;;;;;4.53;1.70;;;11.10;99.90;;;;;;5074565;28;20040;-78
2024/04/03 06:15:07;;;;;;;8.48;1.95;;;11.10;99.90;;;;;;5056813;28;20110;-77
2024/04/03 06:17:34;;;;;;;9.68;1.83;;;11.20;99.90;;;;;;5055668;28;20067;-76
2024/04/03 06:20:00;;;;;;;5.47;1.67;;;11.20;99.90;;;;;;5056572;28;20059;-77
2024/04/03 06:22:26;;;;;;;8.57;2.08;;;11.20;99.90;;;;;;5060829;28;20088;-75
2024/04/03 06:24:51;;;;;;;4.40;1.58;;;11.20;99.90;;;;;;5040935;28;20181;-77
2024/04/03 06:27:17;;;;;;;5.07;1.90;;;11.10;99.90;;;;;;5057567;28;20036;-76
2024/04/03 06:29:43;;;;;;;9.68;1.95;;;11.30;99.90;;;;;;5074575;28;20032;-79
2024/04/03 06:32:08;;;;;;;4.35;1.73;;;11.30;99.90;;;;;;5057743;28;20032;-78
2024/04/03 06:34:34;;;;;;;10.30;1.40;;;11.30;99.90;;;;;;5057388;28;20112;-77
2024/04/03 06:37:00;;;;;;;8.35;1.80;;;11.30;99.90;;;;;;5074041;28;20024;-77
2024/04/03 06:39:26;;;;;;;3.60;1.90;;;11.30;99.90;;;;;;5090433;28;20385;-77
2024/04/03 06:41:51;;;;;;;8.25;1.90;;;11.40;99.90;;;;;;5088099;28;20020;-77
2024/04/03 06:44:18;;;;;;;4.00;2.03;;;11.40;99.90;;;;;;5064660;28;20036;-77
2024/04/03 06:46:44;;;;;;;4.10;1.50;;;11.30;99.90;;;;;;5089033;28;20123;-78
2024/04/03 06:49:11;;;;;;;6.35;1.40;;;11.40;99.90;;;;;;5049901;28;20460;-77
2024/04/03 06:51:37;;;;;;;7.32;1.70;;;11.40;99.90;;;;;;5073214;28;20024;-78
2024/04/03 06:54:03;;;;;;;5.35;1.52;;;11.50;99.90;;;;;;5039144;28;20029;-77
2024/04/03 06:56:32;;;;;;;8.75;1.85;;;11.40;99.90;;;;;;5057888;28;20430;-77
2024/04/03 06:58:58;;;;;;;9.82;2.40;;;11.40;99.90;;;;;;5057488;28;20047;-77
2024/04/03 07:01:24;;;;;;;8.13;1.90;;;11.50;99.90;;;;;;5091039;28;20377;-76
2024/04/03 07:03:51;;;;;;;5.45;1.85;;;11.60;99.90;;;;;;5091679;28;20496;-78
2024/04/03 07:06:21;;;;;;;4.57;1.58;;;11.60;99.90;;;;;;5073207;28;20021;-76
2024/04/03 07:08:47;;;;;;;7.18;1.48;;;11.70;99.90;;;;;;5072354;28;20039;-76
2024/04/03 07:11:15;;;;;;;5.78;1.58;;;11.60;99.90;;;;;;5091479;28;20016;-76
2024/04/03 07:13:40;;;;;;;2.38;1.33;;;11.50;99.90;;;;;;5050269;28;20028;-77
2024/04/03 07:16:07;;;;;;;4.13;1.30;;;11.40;99.90;;;;;;5048536;28;20034;-78
2024/04/03 07:18:32;;;;;;;6.53;1.63;;;11.30;99.90;;;;;;5092742;28;20050;-77
2024/04/03 07:20:59;;;;;;;6.35;1.70;;;11.30;99.90;;;;;;5052959;28;20032;-76
2024/04/03 07:23:28;;;;;;;5.03;1.17;;;11.40;99.90;;;;;;5027372;28;1331033;-76
2024/04/03 07:25:55;;;;;;;2.50;1.10;;;11.50;99.90;;;;;;5075769;28;20254;-76
2024/04/03 07:28:21;;;;;;;5.70;1.52;;;11.80;99.90;;;;;;5058052;28;20036;-79
2024/04/03 07:30:47;;;;;;;2.95;1.70;;;11.70;99.90;;;;;;5074033;28;20020;-80
2024/04/03 07:33:13;;;;;;;4.82;1.42;;;12.00;99.90;;;;;;5092331;28;20214;-79
2024/04/03 07:35:39;;;;;;;4.25;1.20;;;12.00;99.90;;;;;;5074948;28;20077;-76
2024/04/03 07:38:04;;;;;;;8.30;1.50;;;12.20;99.90;;;;;;5092998;28;20404;-78
2024/04/03 07:40:31;;;;;;;8.30;1.75;;;12.20;99.90;;;;;;5075201;28;20048;-78
2024/04/03 07:42:56;;;;;;;6.38;1.33;;;12.10;99.90;;;;;;5058565;28;20025;-77
2024/04/03 07:45:22;;;;;;;5.78;1.70;;;12.20;99.90;;;;;;5036475;28;20029;-75
2024/04/03 07:47:48;;;;;;;3.70;1.48;;;12.10;99.90;;;;;;5058188;28;20038;-77
2024/04/03 07:50:15;;;;;;;7.88;1.73;;;12.10;99.90;;;;;;5074853;28;20043;-76
2024/04/03 07:52:41;;;;;;;5.63;1.50;;;12.20;99.90;;;;;;5074834;28;20062;-75
2024/04/03 07:55:09;;;;;;;4.15;1.35;;;12.10;99.90;;;;;;5076013;28;20101;-77
2024/04/03 07:57:36;;;;;;;3.90;1.10;;;12.00;99.90;;;;;;5076463;28;20032;-76
2024/04/03 08:00:08;;;;;;;3.75;1.30;;;12.00;99.90;;;;;;5057209;28;20040;-75
2024/04/03 08:02:35;;;;;;;3.05;1.08;;;12.00;99.90;;;;;;5049599;28;20056;-75
2024/04/03 08:05:01;;;;;;;10.20;2.47;;;11.90;99.90;;;;;;5054615;28;20024;-77
2024/04/03 08:07:28;;;;;;;2.45;1.38;;;12.00;99.90;;;;;;5040649;28;20527;-79
2024/04/03 08:09:54;;;;;;;3.88;1.25;;;12.10;99.90;;;;;;5074923;28;20048;-77
2024/04/03 08:12:20;;;;;;;1.58;1.08;;;12.10;99.90;;;;;;5092514;28;20544;-75
2024/04/03 08:14:46;;;;;;;7.90;1.88;;;12.10;99.90;;;;;;5058414;28;20080;-76
2024/04/03 08:17:12;;;;;;;10.60;2.63;;;12.10;99.90;;;;;;5091819;28;20095;-75
2024/04/03 08:19:37;;;;;;;2.90;1.00;;;12.20;99.90;;;;;;5059374;28;20075;-77
2024/04/03 08:22:04;;;;;;;3.90;1.60;;;12.20;99.90;;;;;;5096202;28;20054;-77
2024/04/03 08:24:30;;;;;;;3.72;0.95;;;12.20;99.90;;;;;;5091211;28;20399;-76
2024/04/03 08:26:56;;;;;;;4.00;1.77;;;12.20;99.90;;;;;;5038218;28;20044;-77
2024/04/03 08:29:22;;;;;;;2.80;1.00;;;12.30;99.90;;;;;;5054774;28;20033;-76
2024/04/03 08:31:49;;;;;;;1.77;1.17;;;12.30;99.90;;;;;;5047436;28;20036;-77
2024/04/03 08:34:15;;;;;;;2.63;0.90;;;12.00;99.90;;;;;;5072983;28;20036;-76
2024/04/03 08:36:41;;;;;;;3.97;1.50;;;11.80;99.90;;;;;;5066269;28;20028;-78
2024/04/03 08:39:07;;;;;;;3.97;1.40;;;11.60;99.90;;;;;;5040570;28;20037;-77
2024/04/03 08:41:34;;;;;;;8.20;2.75;;;11.60;99.90;;;;;;5057611;28;20557;-76
2024/04/03 08:44:00;;;;;;;5.53;1.88;;;11.70;99.90;;;;;;5075239;28;20031;-79
2024/04/03 08:46:29;;;;;;;3.97;1.58;;;11.80;99.90;;;;;;5076606;28;20028;-77
2024/04/03 08:48:56;;;;;;;6.70;1.42;;;11.90;99.90;;;;;;5075344;28;20033;-79
2024/04/03 08:51:26;;;;;;;4.32;1.40;;;12.00;99.90;;;;;;5073569;28;20036;-77
2024/04/03 08:54:03;;;;;;;2.40;1.13;;;12.20;99.90;;;;;;5077578;28;20085;-79
2024/04/03 08:56:29;;;;;;;5.38;1.30;;;12.10;99.90;;;;;;5075135;28;20044;-77
2024/04/03 08:58:54;;;;;;;5.72;1.88;;;12.00;99.90;;;;;;5074957;28;20105;-77
2024/04/03 09:01:20;;;;;;;10.45;2.42;;;12.00;99.90;;;;;;5077986;28;20115;-77
2024/04/03 09:03:46;;;;;;;2.28;1.23;;;12.20;99.90;;;;;;5080745;28;20514;-75
2024/04/03 09:06:11;;;;;;;24.77;3.15;;;12.30;99.90;;;;;;5077496;28;20505;-78
2024/04/03 09:08:42;;;;;;;2.70;1.20;;;12.30;99.90;;;;;;5043047;28;20028;-77
2024/04/03 09:11:08;;;;;;;1.23;0.75;;;12.20;99.90;;;;;;5077641;28;20112;-78
2024/04/03 09:13:33;;;;;;;5.38;0.93;;;12.10;99.90;;;;;;5062194;28;20056;-77
2024/04/03 09:16:01;;;;;;;1.75;0.80;;;12.10;99.90;;;;;;5080192;28;20464;-77
2024/04/03 09:18:27;;;;;;;1.83;0.90;;;12.00;99.90;;;;;;5078421;28;20021;-77
2024/04/03 09:20:53;;;;;;;0.90;0.52;;;12.00;99.90;;;;;;5074305;28;20565;-78
2024/04/03 09:23:19;;;;;;;7.63;1.40;;;12.10;99.90;;;;;;5059588;28;20076;-77
2024/04/03 09:25:44;;;;;;;5.45;0.80;;;12.00;99.90;;;;;;5078361;28;20031;-77
2024/04/03 09:28:11;;;;;;;3.65;2.28;;;12.00;99.90;;;;;;5061890;28;20036;-76
2024/04/03 09:30:48;;;;;;;4.85;0.88;;;11.90;99.90;;;;;;5075872;28;20062;-76
2024/04/03 09:33:14;;;;;;;4.70;1.13;;;11.80;99.90;;;;;;5075921;28;20489;-77
2024/04/03 09:35:41;;;;;;;2.97;0.95;;;11.90;99.90;;;;;;5059118;28;20043;-75
2024/04/03 09:38:10;;;;;;;1.23;0.77;;;11.90;99.90;;;;;;5075347;28;20654;-77
2024/04/03 09:40:37;;;;;;;5.15;0.80;;;11.90;99.90;;;;;;5062855;28;20032;-78
2024/04/03 09:43:05;;;;;;;5.65;1.17;;;12.00;99.90;;;;;;5075563;28;20031;-79
2024/04/03 09:45:31;;;;;;;12.02;1.85;;;12.00;99.90;;;;;;5094700;28;20048;-77
2024/04/03 09:47:59;;;;;;;1.20;0.70;;;12.00;99.90;;;;;;5059636;28;20035;-79
2024/04/03 09:50:45;;;;;;;2.83;0.80;;;12.00;99.90;;;;;;5060512;28;20485;-77
2024/04/03 09:53:22;;;;;;;4.28;1.25;;;12.10;99.90;;;;;;5093525;28;20127;-78
2024/04/03 09:55:52;;;;;;;4.18;1.20;;;12.20;99.90;;;;;;5076100;28;20024;-76
2024/04/03 09:58:20;;;;;;;1.13;0.65;;;12.20;99.90;;;;;;5075643;28;20029;-77
2024/04/03 10:00:57;;;;;;;1.42;0.80;;;12.20;99.90;;;;;;5093868;28;20377;-76
2024/04/03 10:03:27;;;;;;;5.97;1.40;;;12.20;99.90;;;;;;5075026;28;20976;-77
2024/04/03 10:06:00;;;;;;;1.92;1.17;;;12.30;99.90;;;;;;5076276;28;21177;-78
2024/04/03 10:08:37;;;;;;;;;;;12.50;99.90;;;;;;5095072;28;20016;-79
2024/04/03 10:11:10;;;;;;;1.70;1.10;;;12.50;99.90;;;;;;5078272;28;20045;-75
2024/04/03 10:13:40;;;;;;;4.30;1.00;;;12.40;99.90;;;;;;5070575;28;20444;-78
2024/04/03 10:16:08;;;;;;;2.80;0.95;;;12.50;99.90;;;;;;5071127;28;20124;-75
2024/04/03 10:18:38;;;;;;;1.40;1.10;;;12.50;99.90;;;;;;5093838;28;20028;-77
2024/04/03 10:21:07;;;;;;;3.30;1.15;;;12.50;99.90;;;;;;5074874;28;20017;-77
2024/04/03 10:23:55;;;;;;;3.72;1.40;;;12.50;99.90;;;;;;5071114;28;20055;-77
2024/04/03 10:26:20;;;;;;;17.08;3.78;;;12.50;99.90;;;;;;5072804;28;20091;-77
2024/04/03 10:28:46;;;;;;;30.88;5.93;;;12.40;99.90;;;;;;5070858;28;20124;-75
2024/04/03 10:31:21;;;;;;;4.55;1.60;;;12.50;99.90;;;;;;5071934;28;20031;-80
2024/04/03 10:33:51;;;;;;;3.72;1.48;;;12.60;99.90;;;;;;5054209;28;20439;-76
2024/04/03 10:36:17;;;;;;;3.42;1.30;;;12.70;99.90;;;;;;5071502;28;20032;-76
2024/04/03 10:38:44;;;;;;;3.80;1.55;;;12.80;99.90;;;;;;5051268;28;20029;-75
2024/04/03 10:41:10;;;;;;;5.43;1.17;;;12.80;99.90;;;;;;5054745;28;20059;-77
2024/04/03 10:43:39;;;;;;;2.88;1.40;;;12.90;99.90;;;;;;5070938;28;20366;-79
2024/04/03 10:46:10;;;;;;;1.98;1.20;;;13.00;99.90;;;;;;5075458;28;20028;-77
2024/04/03 10:48:37;;;;;;;3.58;1.73;;;13.10;99.90;;;;;;5074468;28;20025;-76
2024/04/03 10:51:03;;;;;;;2.35;1.00;;;13.00;99.90;;;;;;5067396;28;20064;-75
2024/04/03 10:53:29;;;;;;;4.32;1.45;;;13.10;99.90;;;;;;5082447;28;20394;-76
2024/04/03 10:55:54;;;;;;;2.28;1.13;;;13.20;99.90;;;;;;5048392;28;20039;-76
2024/04/03 10:58:20;;;;;;;6.38;1.45;;;13.10;99.90;;;;;;5024557;28;20106;-77
2024/04/03 11:00:46;;;;;;;2.35;1.05;;;13.10;99.90;;;;;;5071620;28;20048;-77
2024/04/03 11:03:14;;;;;;;4.35;0.88;;;13.20;99.90;;;;;;5054244;28;20139;-79
2024/04/03 11:05:40;;;;;;;2.35;0.95;;;13.20;99.90;;;;;;5071399;28;20577;-78
2024/04/03 11:08:10;;;;;;;4.15;0.98;;;13.30;99.90;;;;;;5054470;28;20116;-81
2024/04/03 11:10:37;;;;;;;1.65;1.05;;;13.30;99.90;;;;;;5072724;28;20031;-80
2024/04/03 11:13:06;;;;;;;2.05;1.02;;;13.40;99.90;;;;;;5071366;28;20028;-80
2024/04/03 11:15:32;;;;;;;4.47;0.93;;;13.50;99.90;;;;;;5052049;28;20033;-79
2024/04/03 11:17:59;;;;;;;2.55;0.80;;;13.50;99.90;;;;;;5067917;28;20115;-81
2024/04/03 11:20:25;;;;;;;3.17;1.02;;;13.50;99.90;;;;;;5071754;28;20051;-78
2024/04/03 11:22:56;;;;;;;3.78;1.10;;;13.60;99.90;;;;;;5053895;28;20053;-79
2024/04/03 11:25:26;;;;;;;4.15;1.08;;;13.70;99.90;;;;;;5071558;28;20051;-77
2024/04/03 11:27:53;;;;;;;3.38;1.10;;;13.90;99.90;;;;;;5037898;28;20033;-78
2024/04/03 11:30:19;;;;;;;2.60;1.20;;;14.10;99.90;;;;;;5071786;28;20093;-79
2024/04/03 11:32:44;;;;;;;2.45;0.90;;;14.80;99.90;;;;;;5053990;28;20041;-78
2024/04/03 11:35:10;;;;;;;3.38;0.95;;;15.30;99.90;;;;;;5088828;28;20516;-80
2024/04/03 11:37:36;;;;;;;2.47;0.90;;;15.80;99.90;;;;;;5054349;28;20398;-79
2024/04/03 11:40:05;;;;;;;3.00;1.05;;;17.40;99.90;;;;;;5072440;28;20098;-79
2024/04/03 11:42:35;;;;;;;1.67;0.85;;;18.10;99.90;;;;;;5071956;28;20013;-79
2024/04/03 11:45:01;;;;;;;2.80;0.90;;;19.20;99.90;;;;;;5072447;28;20452;-77
2024/04/03 11:47:27;;;;;;;3.78;0.95;;;20.20;99.90;;;;;;5054539;28;20056;-79
2024/04/03 11:49:53;;;;;;;4.18;0.98;;;21.20;99.90;;;;;;5073249;28;20071;-78
2024/04/03 11:52:18;;;;;;;3.13;1.20;;;20.80;99.90;;;;;;5080678;28;20017;-79
2024/04/03 11:54:44;;;;;;;6.25;1.35;;;20.00;99.90;;;;;;5085319;28;20032;-77
2024/04/03 11:57:10;;;;;;;4.15;1.13;;;18.80;99.90;;;;;;5085073;28;20089;-77
2024/04/03 11:59:37;;;;;;;4.63;1.13;;;17.60;99.90;;;;;;5084011;28;20040;-78
2024/04/03 12:02:04;;;;;;;7.53;1.17;;;17.00;99.90;;;;;;5059177;28;20116;-75
2024/04/03 12:04:29;;;;;;;4.70;1.58;;;16.50;99.90;;;;;;5061337;28;20033;-77
2024/04/03 12:06:55;;;;;;;4.18;1.50;;;16.20;99.90;;;;;;5059691;28;20025;-76
2024/04/03 12:09:21;;;;;;;5.25;1.30;;;16.10;99.90;;;;;;5069546;28;20055;-79
2024/04/03 12:11:47;;;;;;;10.57;1.65;;;16.30;99.90;;;;;;5056260;28;20117;-76
2024/04/03 12:14:13;;;;;;;4.20;1.10;;;17.20;99.90;;;;;;5068625;28;20031;-76
2024/04/03 12:16:39;;;;;;;5.03;1.25;;;16.70;99.90;;;;;;5077862;28;20025;-76
2024/04/03 12:19:15;;;;;;;6.97;1.20;;;16.40;99.90;;;;;;5057481;28;20041;-78
2024/04/03 12:21:42;;;;;;;4.50;1.17;;;16.20;99.90;;;;;;5043597;28;20123;-77
2024/04/03 12:24:09;;;;;;;6.35;1.13;;;17.30;99.90;;;;;;5053588;28;20056;-77
2024/04/03 12:26:35;;;;;;;5.53;1.23;;;17.10;99.90;;;;;;5071734;28;20393;-74
2024/04/03 12:29:01;;;;;;;7.68;1.17;;;16.80;99.90;;;;;;5042758;28;20055;-77
2024/04/03 12:31:27;;;;;;;9.00;1.63;;;16.60;99.90;;;;;;5048508;28;20445;-76
2024/04/03 12:33:53;;;;;;;8.48;1.55;;;16.40;99.90;;;;;;5077302;28;20031;-78
2024/04/03 12:36:19;;;;;;;10.38;1.75;;;16.20;99.90;;;;;;5045995;28;20032;-77
2024/04/03 12:38:46;;;;;;;3.53;1.08;;;16.00;99.90;;;;;;5062355;28;20120;-79
2024/04/03 12:41:12;;;;;;;7.13;1.90;;;16.10;99.90;;;;;;5045442;28;20107;-77
2024/04/03 12:43:37;;;;;;;5.20;1.23;;;16.30;99.90;;;;;;5036082;28;20410;-78